Pagrindinis puslapis
METAR-TAF:

METAR-TAF

Oro uostai :

Chulitna, Aliaska, Jungtinės Amerikos Valstijos

platuma: 62-53N, ilguma: 149-50W, Aukštis: 381 m

Dabartinis oras

Ataskaita buvo paskelbta 1 valandą ir 18 minutes, ne 17:50 UTC
Ramus vėjas
Temperatūra -20°C
Drėgmė 84%
Slėgis 1010 hPa
Matomumas: 32.2 km
Su prošvaistėmis ne aukštis 5000 ft

METAR: PAEC 161750Z 00000KT 20SM BKN050 M20/M22 A2982 RMK NOSPECI FIRST

Laikas: 10:08 (19:08 UTC)


TAF: trūkstamas

Orai ataskaitas ir orų prognozės (METAR, TAF).

turimą stotys yra geltonos ir raudonos taškus žemėlapyje.

Perkelti pele per norėdami pamatyti stoties vardą.

Tada spustelėkite, norėdami matyti oro stebėjimo ir prognozės.

Norėdami pakeisti žemėlapį: spustelėkite ant žalios mygtukų su juodo kryžiaus žemyn,; žalią mygtuką su brūkšneliu, jei norite nutolinti; arba žalių rodyklių gretimoms žemėlapius.


METAR-TAF: